Terminal Aerodrome Forecast
Issued by NWS

Home | Current Version | Previous Version | Text Only | Print | Product List | Glossary On
Versions: 1 2 3 4 5 6 7 8 9 10 11 12 13 14 15 16 17 18 19 20 21 22
299
FTUS43 KAPX 142331
TAFAPN
TAF
KAPN 142331Z 1500/1524 00000KT P6SM OVC040
     FM150200 23006KT P6SM VCSH BKN035
     FM150900 21007KT 3SM -SHSN OVC035
     FM151800 23009KT 3SM -SHSN OVC030
     FM152000 26008KT 6SM -SHSN OVC030=

USA.gov is the U.S. government's official web portal to all federal, state and local government web resources and services.